Latest Coastal Weather Observations for Coconut Island

IDQ60701

Issued at 1:51 pm EST Friday 20 January 2017 (issued every 10 minutes, with the page automatically refreshed every 10 minutes)

About coastal observations | Map of coastal stations | Coastal observations for QLD | Marine services | Other Formats
Station Details ID: 027054 Name: COCONUT ISLAND Lat: -10.05 Lon: 143.07 Height: 3.5 m
Data from the previous 72 hours. | See also: Recent months at Coconut Island
Date/Time
EST
Temp
°C
Wind Pressure Rain since
9am
mm
Weather Cloud Vis
km
Sea
Height
m
Swell
Dir  Spd
kts
Gust
kts
hPa Trend Height
m
Period
s
Dir
20/01:30pm 30.7 NW 6 9 1008.3 - 0.0 - - - - - - -
20/01:00pm 30.8 NW 6 9 1008.9 - 0.0 - - - - - - -
20/12:30pm 30.6 NW 7 11 1009.0 - 0.0 - - - - - - -
20/12:00pm 30.7 NNW 7 10 1009.1 - 0.0 - - - - - - -
20/11:30am 30.2 NW 7 9 1009.3 - 0.0 - - - - - - -
20/11:00am 30.2 NNW 7 9 1009.6 - 0.0 - - - - - - -
20/10:30am 30.3 NNW 8 10 1009.8 - 0.0 - - - - - - -
20/10:00am 30.0 NNW 8 10 1010.0 - 0.0 - - - - - - -
20/09:30am 29.6 NNW 7 9 1009.9 - 0.0 - - - - - - -
20/09:00am 28.6 NNW 8 11 1009.9 - 3.6 - - - - - - -
20/08:30am 28.0 NNW 7 11 1009.8 - 3.6 - - - - - - -
20/08:00am 27.7 NW 6 8 1009.8 - 3.6 - - - - - - -
20/07:30am 27.6 NW 6 9 1009.6 - 3.6 - - - - - - -
20/07:00am 27.3 WNW 7 10 1009.5 - 3.6 - - - - - - -
20/06:30am 27.4 NW 9 13 1009.2 - 3.6 - - - - - - -
20/06:00am 27.6 NW 9 15 1008.9 - 3.6 Recent precip. - - - - - -
20/05:30am 27.0 WNW 8 13 1008.5 - 3.6 - - - - - - -
20/05:00am 26.4 WNW 7 11 1008.2 - 3.4 - - - - - - -
20/04:30am 26.2 WNW 6 11 1008.0 - 3.4 - - - - - - -
20/04:00am 26.4 WNW 6 10 1008.1 - 3.4 - - - - - - -
20/03:30am 25.9 W 6 11 1008.3 - 3.4 - - - - - - -
20/03:00am 25.4 W 7 11 1008.4 - 3.2 Recent precip. - - - - - -
20/02:30am 25.7 W 6 10 1008.2 - 3.2 - - - - - - -
20/02:00am 25.7 WNW 4 8 1008.6 - 3.0 - - - - - - -
20/01:30am 25.5 WNW 4 7 1009.2 - 2.8 - - - - - - -
20/01:00am 25.6 WNW 4 6 1009.7 - 2.8 - - - - - - -
20/12:30am 25.6 W 4 7 1010.1 - 2.8 - - - - - - -
20/12:00am 25.4 WSW 5 8 1010.4 - 2.0 Rain - - - - - -
 
Date/Time
EST
Temp
°C
Wind Pressure Rain since
9am
mm
Weather Cloud Vis
km
Sea
Height
m
Swell
Dir  Spd
kts
Gust
kts
hPa Trend Height
m
Period
s
Dir
19/11:30pm 25.6 SW 3 6 1010.7 - 0.6 - - - - - - -
19/11:00pm 25.8 WSW 8 12 1010.8 - 0.0 - - - - - - -
19/10:30pm 26.3 SW 5 9 1010.5 - 0.0 - - - - - - -
19/10:00pm 26.2 W 5 10 1010.4 - 0.0 - - - - - - -
19/09:30pm 27.0 NW 10 15 1010.0 - 0.0 - - - - - - -
19/09:00pm 27.1 NW 12 19 1009.7 - 0.0 - - - - - - -
19/08:30pm 28.8 WNW 6 12 1009.2 - 0.0 - - - - - - -
19/08:00pm 28.9 WSW 4 7 1009.2 - 0.0 - - - - - - -
19/07:30pm 28.9 W 4 8 1008.9 - 0.0 - - - - - - -
19/07:00pm 29.0 W 6 9 1008.5 - 0.0 - - - - - - -
19/06:30pm 29.2 W 5 9 1008.0 - 0.0 - - - - - - -
19/06:00pm 30.5 W 5 9 1007.6 - 0.0 - - - - - - -
19/05:30pm 31.2 SW 4 7 1007.4 - 0.0 - - - - - - -
19/05:00pm 31.5 WNW 4 7 1007.3 - 0.0 - - - - - - -
19/04:30pm 31.3 W 4 6 1007.3 - 0.0 - - - - - - -
19/04:00pm 30.6 SW 2 3 1007.2 - 0.0 - - - - - - -
19/03:30pm 31.3 SSE 1 2 1007.6 - 0.0 - - - - - - -
19/03:00pm 31.8 SSE 1 3 1008.0 - 0.0 - - - - - - -
19/02:30pm 31.6 SSE 1 2 1008.3 - 0.0 - - - - - - -
19/02:00pm 31.4 SE 2 3 1008.6 - 0.0 - - - - - - -
19/01:30pm 30.0 ESE 2 5 1009.1 - 0.0 - - - - - - -
19/01:00pm 30.7 SSW 1 3 1009.4 - 0.0 - - - - - - -
19/12:30pm 33.0 SSW 1 4 1009.6 - 0.0 - - - - - - -
19/12:00pm 32.9 S 2 3 1009.8 - 0.0 - - - - - - -
19/11:30am 32.6 SSW 2 4 1010.2 - 0.0 - - - - - - -
19/11:00am 32.5 S 1 2 1010.6 - 0.0 - - - - - - -
19/10:30am 31.8 SSW 2 3 1011.0 - 0.0 - - - - - - -
19/10:00am 32.5 SSW 2 3 1011.3 - 0.0 - - - - - - -
19/09:30am 31.9 SSW 2 3 1011.1 - 0.0 - - - - - - -
19/09:00am 31.0 SSW 2 3 1011.2 - 0.0 - - - - - - -
19/08:30am 29.2 SW 2 5 1011.3 - 0.0 - - - - - - -
19/08:00am 28.1 SW 2 3 1011.4 - 0.0 - - - - - - -
19/07:30am 27.3 SW 1 3 1011.1 - 0.0 - - - - - - -
19/07:00am 26.8 SSW 1 2 1010.7 - 0.0 - - - - - - -
19/06:30am 26.6 CALM 0 0 1010.3 - 0.0 - - - - - - -
19/06:00am 26.7 CALM 0 1 1009.7 - 0.0 - - - - - - -
19/05:30am 26.7 SSW 1 3 1009.8 - 0.0 - - - - - - -
19/05:00am 26.9 SSW 1 3 1009.4 - 0.0 - - - - - - -
19/04:30am 27.1 SSW 2 2 1009.0 - 0.0 - - - - - - -
19/04:00am 26.9 SW 1 3 1008.6 - 0.0 - - - - - - -
19/03:30am 27.0 CALM 0 1 1008.8 - 0.0 - - - - - - -
19/03:00am 26.9 CALM 0 1 1008.8 - 0.0 - - - - - - -
19/02:30am 27.0 CALM 0 3 1009.1 - 0.0 - - - - - - -
19/02:00am 27.1 CALM 0 0 1009.2 - 0.0 - - - - - - -
19/01:30am 27.1 SSW 1 3 1009.4 - 0.0 - - - - - - -
19/01:00am 27.2 CALM 0 0 1009.6 - 0.0 - - - - - - -
19/12:30am 27.4 SSW 2 3 1010.0 - 0.0 - - - - - - -
19/12:00am 27.4 SSW 2 3 1010.1 - 0.0 - - - - - - -
 
Date/Time
EST
Temp
°C
Wind Pressure Rain since
9am
mm
Weather Cloud Vis
km
Sea
Height
m
Swell
Dir  Spd
kts
Gust
kts
hPa Trend Height
m
Period
s
Dir
18/11:30pm 27.5 SSW 2 3 1010.6 - 0.0 - - - - - - -
18/11:00pm 27.8 SSW 2 3 1010.8 - 0.0 - - - - - - -
18/10:30pm 27.9 SSW 1 3 1010.8 - 0.0 - - - - - - -
18/10:00pm 28.0 SSW 2 3 1011.0 - 0.0 - - - - - - -
18/09:30pm 28.1 SSW 3 4 1011.0 - 0.0 - - - - - - -
18/09:00pm 28.2 SSW 2 4 1010.9 - 0.0 - - - - - - -
18/08:30pm 28.4 SSW 3 4 1010.8 - 0.0 - - - - - - -
18/08:00pm 28.6 SSW 2 4 1010.5 - 0.0 - - - - - - -
18/07:30pm 28.9 SSW 3 4 1010.1 - 0.0 - - - - - - -
18/07:00pm 29.4 SSW 3 4 1009.7 - 0.0 - - - - - - -
18/06:30pm 30.2 SW 2 5 1009.2 - 0.0 - - - - - - -
18/06:00pm 30.9 SW 3 5 1008.9 - 0.0 - - - - - - -
18/05:30pm 31.6 SW 2 4 1008.5 - 0.0 - - - - - - -
18/05:00pm 32.1 SSW 1 3 1008.2 - 0.0 - - - - - - -
18/04:30pm 31.6 SSW 1 3 1007.9 - 0.0 - - - - - - -
18/04:00pm 32.5 SSW 1 3 1008.0 - 0.0 - - - - - - -
18/03:30pm 31.7 SSW 2 4 1008.3 - 0.0 - - - - - - -
18/03:00pm 32.1 SW 2 3 1008.7 - 0.0 - - - - - - -
18/02:30pm 30.7 NNW 1 4 1009.0 - 0.0 - - - - - - -
18/02:00pm 31.2 NNW 3 5 1009.4 - 0.0 - - - - - - -
18/01:30pm 30.2 NW 3 5 1009.9 - 0.0 - - - - - - -
18/01:00pm 31.0 NNW 4 5 1010.3 - 0.0 - - - - - - -
18/12:30pm 30.4 N 4 7 1010.7 - 0.0 - - - - - - -
18/12:00pm 31.8 N 3 4 1011.1 - 0.0 - - - - - - -
18/11:30am 31.8 NNE 3 5 1011.2 - 0.0 - - - - - - -
18/11:00am 31.4 NNE 2 3 1011.7 - 0.0 - - - - - - -
18/10:30am 31.1 N 2 3 1012.3 - 0.0 - - - - - - -
18/10:00am 31.0 N 2 4 1012.4 - 0.0 - - - - - - -
18/09:30am 30.5 NNE 3 3 1012.5 - 0.0 - - - - - - -
18/09:00am 29.7 N 2 3 1012.6 - 0.0 - - - - - - -
18/08:30am 29.2 NNE 2 3 1012.4 - 0.0 - - - - - - -
18/08:00am 28.7 NNE 2 3 1012.2 - 0.0 - - - - - - -
18/07:30am 28.7 N 3 4 1011.9 - 0.0 - - - - - - -
18/07:00am 28.0 N 2 3 1011.4 - 0.0 - - - - - - -
18/06:30am 27.6 N 2 3 1010.9 - 0.0 - - - - - - -
18/06:00am 27.3 N 1 2 1010.5 - 0.0 - - - - - - -
18/05:30am 27.6 NNE 3 4 1009.9 - 0.0 - - - - - - -
18/05:00am 27.6 NNE 3 4 1009.6 - 0.0 - - - - - - -
18/04:30am 27.6 NNE 3 4 1009.5 - 0.0 - - - - - - -
18/04:00am 27.4 NE 3 4 1009.5 - 0.0 - - - - - - -
18/03:30am 26.7 ENE 3 5 1009.5 - 0.0 - - - - - - -
18/03:00am 26.7 ENE 2 3 1009.4 - 0.0 - - - - - - -
18/02:30am 26.9 E 3 4 1009.6 - 0.0 - - - - - - -
18/02:00am 26.8 ENE 3 4 1010.0 - 0.0 - - - - - - -
18/01:30am 26.8 E 2 3 1010.5 - 0.0 - - - - - - -
18/01:00am 27.1 E 2 3 1011.0 - 0.0 - - - - - - -
18/12:30am 27.0 E 3 5 1011.4 - 0.0 - - - - - - -
18/12:00am 27.0 E 2 3 1011.6 - 0.0 - - - - - - -
 
Date/Time
EST
Temp
°C
Wind Pressure Rain since
9am
mm
Weather Cloud Vis
km
Sea
Height
m
Swell
Dir  Spd
kts
Gust
kts
hPa Trend Height
m
Period
s
Dir
17/11:30pm 27.1 E 2 3 1012.0 - 0.0 - - - - - - -
17/11:00pm 27.3 E 2 3 1012.2 - 0.0 - - - - - - -
17/10:30pm 27.3 ENE 2 3 1012.2 - 0.0 - - - - - - -
17/10:00pm 27.5 E 2 3 1012.1 - 0.0 - - - - - - -
17/09:30pm 27.8 E 3 5 1011.8 - 0.0 - - - - - - -
17/09:00pm 27.9 ENE 3 5 1011.6 - 0.0 - - - - - - -
17/08:30pm 27.6 E 3 4 1011.6 - 0.0 - - - - - - -
17/08:00pm 27.8 E 2 3 1010.8 - 0.0 - - - - - - -
17/07:30pm 28.0 E 2 4 1010.4 - 0.0 - - - - - - -
17/07:00pm 28.4 ESE 1 3 1009.8 - 0.0 - - - - - - -
17/06:30pm 29.0 E 1 3 1009.4 - 0.0 - - - - - - -
17/06:00pm 29.6 E 2 3 1009.3 - 0.0 - - - - - - -
17/05:30pm 29.9 ESE 2 4 1008.6 - 0.0 - - - - - - -
17/05:00pm 29.5 E 2 4 1008.6 - 0.0 - - - - - - -
17/04:30pm 29.4 ESE 3 4 1008.0 - 0.0 - - - - - - -
17/04:00pm 29.3 ESE 2 5 1008.0 - 0.0 - - - - - - -
17/03:30pm 30.6 ESE 2 4 1008.3 - 0.0 - - - - - - -
17/03:00pm 32.5 SSE 2 4 1008.6 - 0.0 - - - - - - -
17/02:30pm 32.8 SSE 1 3 1008.9 - 0.0 - - - - - - -
17/02:00pm 32.3 SSW 2 3 1009.3 - 0.0 - - - - - - -

Other Formats:

Comma delimited format used in spreadsheet applications
http://www.bom.gov.au/fwo/IDQ60701/IDQ60701.94182.axf

JavaScript Object Notation format (JSON) in row-major order
http://www.bom.gov.au/fwo/IDQ60701/IDQ60701.94182.json